Share

Manama, Bahrain

Bahrain International (OBBI) Elev 7 ft | 26.27 °N, 50.63 °E | Change Station

Current weather conditions updated 24 minutes ago

Clear
Clear
88 °F
Feels Like 86 °F
N
23
Wind Variable Wind from NW
Sunrise 5:09 AM
Sunset 6:03 PM
Moon Waning Gibbous

Today is forecast to be nearly the same temperature as yesterday.

Pressure 29.77 in
Visibility -9999.0 miles
Clouds
Heat Index 86 °F
Dew Point 55 °F
Humidity 33%
Rainfall 0.00 in
Snow Depth Not available.
UV Not available.
Pollen Not available.
Air Quality Not available.
Flu Activity Not available.
METAR OBBI 201200Z 31020KT CAVOK 31/13 Q1008 NOSIG

More Conditions Fewer Conditions

Pressure 29.77 in
Visibility -9999.0 miles
Clouds
Heat Index 86 °F
Dew Point 55 °F
Humidity 33%
Rainfall 0.00 in
Snow Depth Not available.
UV Not available.
Pollen Not available.
Air Quality Not available.
Flu Activity Not available.
METAR OBBI 201200Z 31020KT CAVOK 31/13 Q1008 NOSIG

More Conditions Fewer Conditions

10-Day Weather Forecast

Almanac

Astronomy

Apr. 20, 2014 Rise Set
Actual Time 5:09 AM AST 6:03 PM AST
Civil Twilight 4:45 AM AST 6:27 PM AST
Nautical Twilight 4:17 AM AST 6:55 PM AST
Astronomical Twilight 3:49 AM AST 7:24 PM AST
Moon 11:05 PM AST 9:17 AM AST
Length of Visible Light 13h 41m
Length of Day
12h 53m
Tomorrow will be 1m 25s longer.
Waning Gibbous, 70% of the Moon is Illuminated
Today
Waning Gibbous
Apr 22
Last Quarter
Apr 29
New
May 6
First Quarter
May 14
Full

Yesterday's Extremes

Country Highs Country Lows

Community

  • Easter Greetings
    Easter Greetings
  • Sunny day at the coast-Cape Arago Lighthouse
    Sunny day at the coast-Cape Arago Lighthouse
  • Cherry Blossoms
    Cherry Blossoms
  • White-Crowned Sparrow
    White-Crowned Sparrow
  • New Day
    New Day

WunderPhotos

Upload Photos

1,703,182 photos uploaded!

Nearby

Snow Depth

Not available.

Coastal Water Temperatures

Place Temperature
No Stations Reporting

Earthquake Activity

City Distance Mag. Time & Date
No recent earthquake activity has been reported nearby.
Minimum magnitude displayed is 2.5.

Nearby Weather Stations

There are no personal weather stations in this area.

What do you think?

We're not finished. Please let us know what you like, what you don't like, and what you are still missing.